createdAt,value
2022-11-05T00:02:16.931Z,10.17
2022-11-05T00:05:03.075Z,10.04
2022-11-05T00:08:00.081Z,9.91
2022-11-05T00:10:30.171Z,9.99
2022-11-05T00:13:17.881Z,10.07
2022-11-05T00:16:04.286Z,10.04
2022-11-05T00:18:31.640Z,10.16
2022-11-05T00:20:59.086Z,10.35
2022-11-05T00:23:44.733Z,10.32
2022-11-05T00:26:12.959Z,10.23
2022-11-05T00:28:43.682Z,10.31
2022-11-05T00:31:13.673Z,10.26
2022-11-05T00:33:42.911Z,10.27
2022-11-05T00:36:11.374Z,10.31
2022-11-05T00:38:38.776Z,10.33
2022-11-05T00:41:06.180Z,10.35
2022-11-05T00:43:52.127Z,10.23
2022-11-05T00:46:19.555Z,10.16
2022-11-05T00:49:05.373Z,10.23
2022-11-05T00:51:32.767Z,10.35
2022-11-05T00:54:00.128Z,10.30
2022-11-05T00:56:27.527Z,10.35
2022-11-05T00:58:56.241Z,10.44
2022-11-05T01:01:24.161Z,10.23
2022-11-05T01:03:52.097Z,10.14
2022-11-05T01:06:19.633Z,10.18
2022-11-05T01:08:47.261Z,10.21
2022-11-05T01:11:33.197Z,10.24
2022-11-05T01:14:04.192Z,10.30
2022-11-05T01:16:32.048Z,10.32
2022-11-05T01:19:00.638Z,10.25
2022-11-05T01:21:28.045Z,10.30
2022-11-05T01:23:55.419Z,10.33
2022-11-05T01:26:22.800Z,10.35
2022-11-05T01:28:54.894Z,10.45
2022-11-05T01:31:22.508Z,10.32
2022-11-05T01:33:50.528Z,10.42
2022-11-05T01:36:18.417Z,10.36
2022-11-05T01:38:45.836Z,10.37
2022-11-05T01:41:13.229Z,10.41
2022-11-05T01:43:50.145Z,10.36
2022-11-05T01:46:23.616Z,10.27
2022-11-05T01:48:56.231Z,10.02
2022-11-05T01:51:28.525Z,9.98
2022-11-05T01:54:01.603Z,9.81
2022-11-05T01:57:08.552Z,9.69
2022-11-05T01:59:43.177Z,9.83
2022-11-05T02:02:10.774Z,9.84
2022-11-05T02:04:44.710Z,9.91
2022-11-05T02:07:13.284Z,10.00
2022-11-05T02:09:43.298Z,9.94
2022-11-05T02:12:12.955Z,9.94
2022-11-05T02:14:40.475Z,9.95
2022-11-05T02:17:46.433Z,9.93
2022-11-05T02:20:43.417Z,9.90
2022-11-05T02:23:21.989Z,9.85
2022-11-05T02:26:16.321Z,9.81
2022-11-05T02:29:02.319Z,9.84
2022-11-05T02:31:43.096Z,9.75
2022-11-05T02:34:34.717Z,9.78
2022-11-05T02:37:16.243Z,9.82
2022-11-05T02:40:01.448Z,9.90
2022-11-05T02:43:01.410Z,9.94
2022-11-05T02:45:51.867Z,9.73
2022-11-05T02:48:26.609Z,9.84
2022-11-05T02:51:32.093Z,9.95
2022-11-05T02:54:13.742Z,10.03
2022-11-05T02:57:15.788Z,10.02
2022-11-05T02:59:43.078Z,10.20
2022-11-05T03:02:10.608Z,10.19
2022-11-05T03:04:38.685Z,10.14
2022-11-05T03:07:08.966Z,10.14
2022-11-05T03:09:52.059Z,10.17
2022-11-05T03:12:38.272Z,10.15
2022-11-05T03:15:44.293Z,10.00
2022-11-05T03:18:18.331Z,9.97
2022-11-05T03:20:51.306Z,10.02
2022-11-05T03:23:21.693Z,10.00
2022-11-05T03:25:54.454Z,9.97
2022-11-05T03:28:27.217Z,9.96
2022-11-05T03:30:57.869Z,10.02
2022-11-05T03:33:28.692Z,10.13
2022-11-05T03:36:00.873Z,10.14
2022-11-05T03:38:32.915Z,10.22
2022-11-05T03:41:05.019Z,10.24
2022-11-05T03:43:37.289Z,10.24
2022-11-05T03:46:30.404Z,10.21
2022-11-05T03:49:01.873Z,10.05
2022-11-05T03:51:29.328Z,10.11
2022-11-05T03:54:01.158Z,10.17
2022-11-05T03:56:39.484Z,10.11
2022-11-05T03:59:09.372Z,10.21
2022-11-05T04:01:38.474Z,10.31
2022-11-05T04:04:06.546Z,10.32
2022-11-05T04:06:52.300Z,10.25
2022-11-05T04:09:45.938Z,10.21
2022-11-05T04:12:31.912Z,10.27
2022-11-05T04:14:59.231Z,10.37
2022-11-05T04:17:26.633Z,10.37
2022-11-05T04:20:12.575Z,10.47
2022-11-05T04:22:58.526Z,10.49
2022-11-05T04:25:25.890Z,10.38
2022-11-05T04:27:53.430Z,10.34
2022-11-05T04:30:21.771Z,10.30
2022-11-05T04:33:05.967Z,10.30
2022-11-05T04:35:37.643Z,10.43
2022-11-05T04:38:06.051Z,10.49
2022-11-05T04:40:33.818Z,10.55
2022-11-05T04:43:01.223Z,10.57
2022-11-05T04:45:31.972Z,10.54
2022-11-05T04:47:59.310Z,10.55
2022-11-05T04:50:27.378Z,10.63
2022-11-05T04:52:54.792Z,10.64
2022-11-05T04:55:22.373Z,10.57
2022-11-05T04:57:51.730Z,10.52
2022-11-05T05:00:21.308Z,10.41
2022-11-05T05:02:49.170Z,10.49
2022-11-05T05:05:16.845Z,10.45
2022-11-05T05:07:45.679Z,10.39
2022-11-05T05:10:13.178Z,10.38
2022-11-05T05:12:40.554Z,10.31
2022-11-05T05:15:09.543Z,10.30
2022-11-05T05:17:36.943Z,10.30
2022-11-05T05:20:22.841Z,10.36
2022-11-05T05:22:54.657Z,10.42
2022-11-05T05:25:22.843Z,10.49
2022-11-05T05:27:50.234Z,10.55
2022-11-05T05:30:18.180Z,10.63
2022-11-05T05:32:45.508Z,10.57
2022-11-05T05:35:12.958Z,10.54
2022-11-05T05:37:40.365Z,10.56
2022-11-05T05:40:08.830Z,10.58
2022-11-05T05:42:40.311Z,10.55
2022-11-05T05:45:11.508Z,10.57
2022-11-05T05:47:38.859Z,10.51
2022-11-05T05:50:06.346Z,10.49
2022-11-05T05:52:33.839Z,10.50
2022-11-05T05:55:01.184Z,10.53
2022-11-05T05:57:28.567Z,10.56
2022-11-05T05:59:55.933Z,10.55
2022-11-05T06:02:23.378Z,10.59
2022-11-05T06:04:50.739Z,10.57
2022-11-05T06:07:18.071Z,10.62
2022-11-05T06:09:45.522Z,10.64
2022-11-05T06:12:12.860Z,10.59
2022-11-05T06:14:40.507Z,10.60
2022-11-05T06:17:07.943Z,10.54
2022-11-05T06:19:35.358Z,10.58
2022-11-05T06:22:02.728Z,10.47
2022-11-05T06:24:30.098Z,10.52
2022-11-05T06:26:57.410Z,10.56
2022-11-05T06:29:24.742Z,10.41
2022-11-05T06:31:52.071Z,10.34
2022-11-05T06:34:19.484Z,10.43
2022-11-05T06:36:46.946Z,10.48
2022-11-05T06:39:14.544Z,10.54
2022-11-05T06:42:17.488Z,10.55
2022-11-05T06:44:29.344Z,10.58
2022-11-05T06:46:56.653Z,10.70
2022-11-05T06:49:26.554Z,10.73
2022-11-05T06:51:53.922Z,10.73
2022-11-05T06:54:21.456Z,10.77
2022-11-05T06:56:48.905Z,10.81
2022-11-05T06:59:16.489Z,10.84
2022-11-05T07:01:44.029Z,10.89
2022-11-05T07:04:12.692Z,10.94
2022-11-05T07:06:40.027Z,11.02
2022-11-05T07:09:07.400Z,11.10
2022-11-05T07:11:34.895Z,11.29
2022-11-05T07:14:02.313Z,11.39
2022-11-05T07:16:29.826Z,11.46
2022-11-05T07:18:57.231Z,11.55
2022-11-05T07:21:24.949Z,11.62
2022-11-05T07:23:52.329Z,11.71
2022-11-05T07:26:19.767Z,11.77
2022-11-05T07:28:47.160Z,11.80
2022-11-05T07:31:14.475Z,11.86
2022-11-05T07:33:41.890Z,11.90
2022-11-05T07:36:09.745Z,11.99
2022-11-05T07:38:37.068Z,12.08
2022-11-05T07:41:04.518Z,12.15
2022-11-05T07:43:31.980Z,12.23
2022-11-05T07:45:59.524Z,12.32
2022-11-05T07:48:26.943Z,12.41
2022-11-05T07:50:54.629Z,12.55
2022-11-05T07:53:22.073Z,12.63
2022-11-05T07:55:49.469Z,12.68
2022-11-05T07:58:17.047Z,12.85
2022-11-05T08:00:44.641Z,12.93
2022-11-05T08:03:15.289Z,13.08
2022-11-05T08:05:46.310Z,13.34
2022-11-05T08:08:16.634Z,14.06
2022-11-05T08:10:44.394Z,16.08
2022-11-05T08:13:13.305Z,17.28
2022-11-05T08:15:42.703Z,18.00
2022-11-05T08:18:15.712Z,19.23
2022-11-05T08:20:44.724Z,20.12
2022-11-05T08:23:13.015Z,20.43
2022-11-05T08:25:41.298Z,20.61
2022-11-05T08:28:11.956Z,21.24
2022-11-05T08:30:39.361Z,21.45
2022-11-05T08:33:10.848Z,20.85
2022-11-05T08:35:38.890Z,20.06
2022-11-05T08:38:07.746Z,19.23
2022-11-05T08:40:36.321Z,18.66
2022-11-05T08:43:06.675Z,18.22
2022-11-05T08:45:35.494Z,17.76
2022-11-05T08:48:05.794Z,17.44
2022-11-05T08:50:33.910Z,17.09
2022-11-05T08:53:01.472Z,16.89
2022-11-05T08:55:28.993Z,16.71
2022-11-05T08:57:58.171Z,16.41
2022-11-05T09:00:27.152Z,16.29
2022-11-05T09:02:54.844Z,16.14
2022-11-05T09:05:22.164Z,16.18
2022-11-05T09:07:49.806Z,16.15
2022-11-05T09:10:17.443Z,16.02
2022-11-05T09:12:44.895Z,16.03
2022-11-05T09:15:12.582Z,15.90
2022-11-05T09:17:40.077Z,16.01
2022-11-05T09:20:08.821Z,15.98
2022-11-05T09:22:40.589Z,15.76
2022-11-05T09:25:10.713Z,15.84
2022-11-05T09:27:38.229Z,15.75
2022-11-05T09:30:06.127Z,15.78
2022-11-05T09:32:33.574Z,15.92
2022-11-05T09:35:01.308Z,15.86
2022-11-05T09:37:29.144Z,15.76
2022-11-05T09:39:56.669Z,15.70
2022-11-05T09:42:41.509Z,15.73
2022-11-05T09:45:16.800Z,15.72
2022-11-05T09:47:52.279Z,15.82
2022-11-05T09:50:32.595Z,15.96
2022-11-05T09:53:00.866Z,15.87
2022-11-05T09:55:33.414Z,15.75
2022-11-05T09:58:05.441Z,15.76
2022-11-05T10:00:32.971Z,15.79
2022-11-05T10:03:08.025Z,15.86
2022-11-05T10:05:38.628Z,15.92
2022-11-05T10:08:11.457Z,15.92
2022-11-05T10:10:43.405Z,15.94
2022-11-05T10:13:29.607Z,16.05
2022-11-05T10:16:04.511Z,16.09
2022-11-05T10:18:39.416Z,16.08
2022-11-05T10:21:09.850Z,16.14
2022-11-05T10:23:37.547Z,16.26
2022-11-05T10:26:13.493Z,16.33
2022-11-05T10:28:41.100Z,16.37
2022-11-05T10:31:12.133Z,16.47
2022-11-05T10:33:41.434Z,16.37
2022-11-05T10:36:23.418Z,16.32
2022-11-05T10:38:59.152Z,16.35
2022-11-05T10:41:35.655Z,16.55
2022-11-05T10:44:03.068Z,16.50
2022-11-05T10:46:58.404Z,16.42
2022-11-05T10:49:37.472Z,16.40
2022-11-05T10:52:33.039Z,16.46
2022-11-05T10:55:04.532Z,16.50
2022-11-05T10:58:05.169Z,16.46
2022-11-05T11:00:32.722Z,16.47
2022-11-05T11:03:02.909Z,16.57
2022-11-05T11:05:33.100Z,16.59
2022-11-05T11:08:24.949Z,16.65
2022-11-05T11:10:57.775Z,16.81
2022-11-05T11:13:47.814Z,16.78
2022-11-05T11:16:20.211Z,16.78
2022-11-05T11:18:56.949Z,16.83
2022-11-05T11:21:24.569Z,16.83
2022-11-05T11:24:03.225Z,16.80
2022-11-05T11:26:40.128Z,16.92
2022-11-05T11:29:26.558Z,16.96
2022-11-05T11:31:58.818Z,16.99
2022-11-05T11:34:33.878Z,17.07
2022-11-05T11:37:12.829Z,17.05
2022-11-05T11:39:49.512Z,17.05
2022-11-05T11:42:27.112Z,17.17
2022-11-05T11:44:56.822Z,17.02
2022-11-05T11:47:28.825Z,17.10
2022-11-05T11:50:01.679Z,17.11
2022-11-05T11:52:31.757Z,17.08
2022-11-05T11:55:10.757Z,17.07
2022-11-05T11:58:14.419Z,17.09
2022-11-05T12:00:48.681Z,17.21
2022-11-05T12:03:25.602Z,17.14
2022-11-05T12:06:28.455Z,17.27
2022-11-05T12:09:22.191Z,17.39
2022-11-05T12:12:05.200Z,17.29
2022-11-05T12:14:54.468Z,17.29
2022-11-05T12:17:43.427Z,17.38
2022-11-05T12:20:31.583Z,17.28
2022-11-05T12:23:30.006Z,17.24
2022-11-05T12:26:23.112Z,17.23
2022-11-05T12:29:16.493Z,17.12
2022-11-05T12:31:48.623Z,17.12
2022-11-05T12:34:28.192Z,17.13
2022-11-05T12:37:35.115Z,17.09
2022-11-05T12:40:11.349Z,17.37
2022-11-05T12:43:18.521Z,17.49
2022-11-05T12:46:04.955Z,17.55
2022-11-05T12:49:00.299Z,17.56
2022-11-05T12:51:56.451Z,17.55
2022-11-05T12:54:43.764Z,17.48
2022-11-05T12:57:14.410Z,17.40
2022-11-05T12:59:50.648Z,17.48
2022-11-05T13:02:27.088Z,17.38
2022-11-05T13:05:01.483Z,17.33
2022-11-05T13:07:35.121Z,17.31
2022-11-05T13:10:26.361Z,17.32
2022-11-05T13:13:40.201Z,17.27
2022-11-05T13:16:19.272Z,17.34
2022-11-05T13:18:57.435Z,17.32
2022-11-05T13:21:29.069Z,17.30
2022-11-05T13:24:11.132Z,17.27
2022-11-05T13:27:22.572Z,17.23
2022-11-05T13:29:59.570Z,17.21
2022-11-05T13:32:44.461Z,17.14
2022-11-05T13:35:20.578Z,17.10
2022-11-05T13:38:11.659Z,17.09
2022-11-05T13:40:51.887Z,17.10
2022-11-05T13:43:36.970Z,17.32
2022-11-05T13:46:10.873Z,17.30
2022-11-05T13:49:20.164Z,17.36
2022-11-05T13:52:15.364Z,17.30
2022-11-05T13:55:08.806Z,17.16
2022-11-05T13:57:45.331Z,17.24
2022-11-05T14:00:18.066Z,17.14
2022-11-05T14:03:08.681Z,17.12
2022-11-05T14:05:39.689Z,17.04
2022-11-05T14:08:24.801Z,16.97
2022-11-05T14:11:03.504Z,17.05
2022-11-05T14:13:39.077Z,17.12
2022-11-05T14:16:17.776Z,17.14
2022-11-05T14:18:47.830Z,17.09
2022-11-05T14:21:27.329Z,17.11
2022-11-05T14:23:57.324Z,17.10
2022-11-05T14:26:31.539Z,17.07
2022-11-05T14:28:58.882Z,16.99
2022-11-05T14:35:15.556Z,16.88
2022-11-05T14:37:53.896Z,16.84
2022-11-05T14:40:30.187Z,16.82
2022-11-05T14:43:01.624Z,16.82
2022-11-05T14:45:42.479Z,16.80
2022-11-05T14:48:49.066Z,16.76
2022-11-05T14:51:26.421Z,16.71
2022-11-05T14:54:32.641Z,16.67
2022-11-05T14:57:02.494Z,16.68
2022-11-05T14:59:31.705Z,16.69
2022-11-05T15:02:13.463Z,16.66
2022-11-05T15:04:45.337Z,16.74
2022-11-05T15:07:31.923Z,16.73
2022-11-05T15:10:10.032Z,16.69
2022-11-05T15:12:41.383Z,16.71
2022-11-05T15:15:28.567Z,16.65
2022-11-05T15:18:20.879Z,16.57
2022-11-05T15:20:52.829Z,16.54
2022-11-05T15:23:26.135Z,16.50
2022-11-05T15:26:23.707Z,16.40
2022-11-05T15:28:52.869Z,16.38
2022-11-05T15:31:35.365Z,16.35
2022-11-05T15:34:25.801Z,16.30
2022-11-05T15:36:57.876Z,16.43
2022-11-05T15:39:30.576Z,16.44
2022-11-05T15:42:02.821Z,16.27
2022-11-05T15:44:33.410Z,16.20
2022-11-05T15:47:23.855Z,16.19
2022-11-05T15:49:58.841Z,16.11
2022-11-05T15:52:42.231Z,16.01
2022-11-05T15:55:12.933Z,15.98
2022-11-05T15:57:51.023Z,15.86
2022-11-05T16:00:26.158Z,15.86
2022-11-05T16:03:07.363Z,15.78
2022-11-05T16:05:42.131Z,15.79
2022-11-05T16:08:19.095Z,15.68
2022-11-05T16:10:50.270Z,15.62
2022-11-05T16:13:30.157Z,15.52
2022-11-05T16:16:03.615Z,15.51
2022-11-05T16:18:37.736Z,15.47
2022-11-05T16:21:05.242Z,15.45
2022-11-05T16:23:49.696Z,15.39
2022-11-05T16:29:29.246Z,15.15
2022-11-05T16:32:00.315Z,15.16
2022-11-05T16:34:31.385Z,15.18
2022-11-05T16:36:59.745Z,15.14
2022-11-05T16:39:27.449Z,15.03
2022-11-05T16:41:54.955Z,15.07
2022-11-05T16:44:22.850Z,15.01
2022-11-05T16:46:50.693Z,15.01
2022-11-05T16:49:18.421Z,14.97
2022-11-05T16:51:45.858Z,14.95
2022-11-05T16:54:13.304Z,14.81
2022-11-05T16:56:42.843Z,14.75
2022-11-05T16:59:12.976Z,14.75
2022-11-05T17:01:42.470Z,14.65
2022-11-05T17:04:12.978Z,14.53
2022-11-05T17:06:40.398Z,14.41
2022-11-05T17:09:07.777Z,14.38
2022-11-05T17:11:35.190Z,14.36
2022-11-05T17:14:02.700Z,14.18
2022-11-05T17:16:30.361Z,14.18
2022-11-05T17:18:57.833Z,14.12
2022-11-05T17:21:25.268Z,14.09
2022-11-05T17:23:52.602Z,14.04
2022-11-05T17:26:21.903Z,13.99
2022-11-05T17:28:49.384Z,13.96
2022-11-05T17:31:17.414Z,13.90
2022-11-05T17:33:44.902Z,13.85
2022-11-05T17:36:15.144Z,13.80
2022-11-05T17:38:42.842Z,13.72
2022-11-05T17:41:12.686Z,13.56
2022-11-05T17:43:40.069Z,13.51
2022-11-05T17:46:10.330Z,13.54
2022-11-05T17:48:38.547Z,13.65
2022-11-05T17:51:09.884Z,13.65
2022-11-05T17:53:40.065Z,13.51
2022-11-05T17:56:11.940Z,13.64
2022-11-05T17:58:40.469Z,13.37
2022-11-05T18:01:19.338Z,13.41
2022-11-05T18:03:46.767Z,13.38
2022-11-05T18:06:14.067Z,13.29
2022-11-05T18:08:41.426Z,13.31
2022-11-05T18:11:08.770Z,13.18
2022-11-05T18:13:36.166Z,13.16
2022-11-05T18:16:03.648Z,13.12
2022-11-05T18:18:31.371Z,13.11
2022-11-05T18:20:59.785Z,12.92
2022-11-05T18:23:27.205Z,12.84
2022-11-05T18:25:54.590Z,12.83
2022-11-05T18:28:22.007Z,12.84
2022-11-05T18:30:49.439Z,12.87
2022-11-05T18:33:17.381Z,12.76
2022-11-05T18:35:45.253Z,12.69
2022-11-05T18:38:12.980Z,12.77
2022-11-05T18:40:40.503Z,12.72
2022-11-05T18:43:07.983Z,12.58
2022-11-05T18:45:35.419Z,12.51
2022-11-05T18:48:03.334Z,12.52
2022-11-05T18:50:30.771Z,12.47
2022-11-05T18:52:58.123Z,12.42
2022-11-05T18:55:25.578Z,12.40
2022-11-05T18:57:53.002Z,12.42
2022-11-05T19:00:20.463Z,12.50
2022-11-05T19:02:47.941Z,12.52
2022-11-05T19:05:28.491Z,12.56
2022-11-05T19:07:57.424Z,12.51
2022-11-05T19:10:26.151Z,12.50
2022-11-05T19:12:54.303Z,12.52
2022-11-05T19:15:21.695Z,12.49
2022-11-05T19:17:49.088Z,12.32
2022-11-05T19:20:16.456Z,12.24
2022-11-05T19:22:43.838Z,12.19
2022-11-05T19:25:11.744Z,12.17
2022-11-05T19:27:39.311Z,12.08
2022-11-05T19:30:07.041Z,12.07
2022-11-05T19:32:34.415Z,11.94
2022-11-05T19:35:01.748Z,11.92
2022-11-05T19:37:29.139Z,11.97
2022-11-05T19:39:56.543Z,11.94
2022-11-05T19:42:24.233Z,11.84
2022-11-05T19:44:51.867Z,11.69
2022-11-05T19:47:19.186Z,11.55
2022-11-05T19:49:46.557Z,11.64
2022-11-05T19:52:13.953Z,11.55
2022-11-05T19:54:41.394Z,11.69
2022-11-05T19:57:08.773Z,11.72
2022-11-05T19:59:36.283Z,11.61
2022-11-05T20:02:04.462Z,11.63
2022-11-05T20:04:32.275Z,11.82
2022-11-05T20:06:59.624Z,11.64
2022-11-05T20:09:27.293Z,11.69
2022-11-05T20:11:56.527Z,11.62
2022-11-05T20:14:25.264Z,11.57
2022-11-05T20:16:53.508Z,11.45
2022-11-05T20:19:22.453Z,11.43
2022-11-05T20:21:50.217Z,11.41
2022-11-05T20:24:24.219Z,11.52
2022-11-05T20:26:54.388Z,11.41
2022-11-05T20:29:23.001Z,11.49
2022-11-05T20:31:51.239Z,11.49
2022-11-05T20:34:18.834Z,11.66
2022-11-05T20:36:46.303Z,11.68
2022-11-05T20:39:13.679Z,11.60
2022-11-05T20:41:41.569Z,11.56
2022-11-05T20:44:09.092Z,11.55
2022-11-05T20:46:36.447Z,11.54
2022-11-05T20:49:03.947Z,11.58
2022-11-05T20:51:31.341Z,11.66
2022-11-05T20:54:01.202Z,11.63
2022-11-05T20:56:31.105Z,11.62
2022-11-05T20:59:00.603Z,11.45
2022-11-05T21:01:32.042Z,11.49
2022-11-05T21:04:03.220Z,11.53
2022-11-05T21:06:31.171Z,11.37
2022-11-05T21:08:58.728Z,11.31
2022-11-05T21:11:26.393Z,11.35
2022-11-05T21:13:54.822Z,11.30
2022-11-05T21:16:22.510Z,11.14
2022-11-05T21:18:50.103Z,11.12
2022-11-05T21:21:19.789Z,11.10
2022-11-05T21:23:47.484Z,11.02
2022-11-05T21:26:16.972Z,11.10
2022-11-05T21:28:44.573Z,11.03
2022-11-05T21:31:11.982Z,11.05
2022-11-05T21:33:39.584Z,11.20
2022-11-05T21:36:09.624Z,11.22
2022-11-05T21:38:37.649Z,11.28
2022-11-05T21:41:05.948Z,11.28
2022-11-05T21:43:33.814Z,11.31
2022-11-05T21:46:02.941Z,11.35
2022-11-05T21:48:30.931Z,11.34
2022-11-05T21:51:17.185Z,11.34
2022-11-05T21:54:03.229Z,11.20
2022-11-05T21:56:49.669Z,11.11
2022-11-05T21:59:38.621Z,11.07
2022-11-05T22:02:08.678Z,11.12
2022-11-05T22:04:38.934Z,10.98
2022-11-05T22:07:08.475Z,10.80
2022-11-05T22:09:36.473Z,10.74
2022-11-05T22:12:05.037Z,10.82
2022-11-05T22:14:32.614Z,10.88
2022-11-05T22:17:00.296Z,11.01
2022-11-05T22:19:27.975Z,10.92
2022-11-05T22:21:55.376Z,10.81
2022-11-05T22:24:23.622Z,10.87
2022-11-05T22:26:51.087Z,10.90
2022-11-05T22:29:18.463Z,10.96
2022-11-05T22:31:45.835Z,11.00
2022-11-05T22:34:13.408Z,10.83
2022-11-05T22:36:40.863Z,10.88
2022-11-05T22:39:08.253Z,10.90
2022-11-05T22:41:35.876Z,10.84
2022-11-05T22:44:03.705Z,10.76
2022-11-05T22:46:31.301Z,10.69
2022-11-05T22:48:59.512Z,10.66
2022-11-05T22:51:29.639Z,10.66
2022-11-05T22:53:58.072Z,10.71
2022-11-05T22:56:28.236Z,10.72
2022-11-05T23:01:58.255Z,10.66
2022-11-05T23:04:25.693Z,10.68
2022-11-05T23:07:11.640Z,10.67
2022-11-05T23:09:57.870Z,10.62
2022-11-05T23:12:28.577Z,10.48
2022-11-05T23:14:57.572Z,10.45
2022-11-05T23:17:44.121Z,10.31
2022-11-05T23:20:34.383Z,10.23
2022-11-05T23:23:20.432Z,10.12
2022-11-05T23:25:47.982Z,10.03
2022-11-05T23:28:15.759Z,9.94
2022-11-05T23:31:03.402Z,9.86
2022-11-05T23:33:34.309Z,9.81
2022-11-05T23:36:20.318Z,9.98
2022-11-05T23:38:47.710Z,10.07
2022-11-05T23:41:33.687Z,10.14
2022-11-05T23:44:19.622Z,10.19
2022-11-05T23:47:05.495Z,10.19
2022-11-05T23:49:32.993Z,10.28
2022-11-05T23:52:00.458Z,10.29
2022-11-05T23:54:27.851Z,10.46
2022-11-05T23:56:55.267Z,10.55
